Riverton, WY (82501)

3:22 PM MST on February 07, 2016 (GMT -0700)
Logan Park | | Change Station
CLOSE
Current Station
Personal Weather Station
Location: Riverton, WY
Elevation: 4984 ft
Nearby Weather Stations

Elev 4984 ft 43.04 °N, 108.39 °W | Updated 15 seconds ago

Clear
Clear
35.0 °F
Feels Like 31 °F
N
5.0
Wind Variable Wind from East
Gusts 7.0 mph

Today
High -- | Low -- °F
--% Chance of Precip.
Yesterday
High -- | Low -- °F
Precip. -- in
Pressure 30.43 in
Visibility 10.0 miles
Clouds Clear
Windchill 31 °F
Dew Point 16 °F
Humidity 43%
Rainfall 0.00 in
Snow Depth Not available.
7:22 AM 5:33 PM
Waning Crescent, 1% visible
METAR KRIW 072153Z AUTO 10006KT 10SM CLR 00/M10 A3037 RMK AO2 SLP304 T00001100 $
Pressure 30.43 in
Visibility 10.0 miles
Clouds Clear
Windchill 31 °F
Dew Point 16 °F
Humidity 43%
Rainfall 0.00 in
Snow Depth Not available.
7:22 AM 5:33 PM
Waning Crescent, 1% visible
METAR KRIW 072153Z AUTO 10006KT 10SM CLR 00/M10 A3037 RMK AO2 SLP304 T00001100 $

10-Day Weather Forecast

Almanac

Astronomy

Feb. 07, 2016 Rise Set
Actual Time
Civil Twilight
Nautical Twilight
Astronomical Twilight
Moon
Length of Visible Light
Length of Day
Tomorrow will be .
, % of the Moon is Illuminated

Today's Extremes

State Highs State Lows

Community

WunderPhotos

Upload Photos

1,891,318 photos uploaded!

WunderBlog® & News

Nearby

Air Quality

  Air Quality AQ Index Pollutant
Not available.

Snow Depth

Station Depth Elevation

Earthquake Activity

City Distance Mag. Time & Date
Minimum magnitude displayed is 2.5.

Coastal Water Temperatures

Place Temperature

Stations

Nearby Weather Stations

Station Location Temp. Windchill Dew Point Humidity Wind Precip. Elev Updated Type
                   

Watches & Warnings

There are currently no watches in effect.